sensor_id;sensor_type;location;lat;lon;timestamp;P1;P2;P0
47741;PMS5003;33504;52.066;6.096;2023-09-30T00:00:55;47;45;
47741;PMS5003;33504;52.066;6.096;2023-09-30T00:03:22;8;7;
47741;PMS5003;33504;52.066;6.096;2023-09-30T00:05:49;27;25;
47741;PMS5003;33504;52.066;6.096;2023-09-30T00:08:16;8;8;
47741;PMS5003;33504;52.066;6.096;2023-09-30T00:10:43;9;8;
47741;PMS5003;33504;52.066;6.096;2023-09-30T00:13:10;10;9;
47741;PMS5003;33504;52.066;6.096;2023-09-30T00:15:37;13;11;
47741;PMS5003;33504;52.066;6.096;2023-09-30T00:18:04;26;24;
47741;PMS5003;33504;52.066;6.096;2023-09-30T00:20:32;14;14;
47741;PMS5003;33504;52.066;6.096;2023-09-30T00:22:58;15;12;
47741;PMS5003;33504;52.066;6.096;2023-09-30T00:25:25;20;18;
47741;PMS5003;33504;52.066;6.096;2023-09-30T00:27:52;24;24;
47741;PMS5003;33504;52.066;6.096;2023-09-30T00:30:19;19;18;
47741;PMS5003;33504;52.066;6.096;2023-09-30T00:32:46;18;17;
47741;PMS5003;33504;52.066;6.096;2023-09-30T00:35:13;25;24;
47741;PMS5003;33504;52.066;6.096;2023-09-30T00:37:41;22;21;
47741;PMS5003;33504;52.066;6.096;2023-09-30T00:40:09;20;18;
47741;PMS5003;33504;52.066;6.096;2023-09-30T00:42:37;50;50;
47741;PMS5003;33504;52.066;6.096;2023-09-30T00:45:04;23;21;
47741;PMS5003;33504;52.066;6.096;2023-09-30T00:47:32;19;18;
47741;PMS5003;33504;52.066;6.096;2023-09-30T00:50:00;35;34;
47741;PMS5003;33504;52.066;6.096;2023-09-30T00:52:28;11;9;
47741;PMS5003;33504;52.066;6.096;2023-09-30T00:54:57;15;13;
47741;PMS5003;33504;52.066;6.096;2023-09-30T00:57:24;10;10;
47741;PMS5003;33504;52.066;6.096;2023-09-30T00:59:52;13;12;
47741;PMS5003;33504;52.066;6.096;2023-09-30T01:02:20;12;10;
47741;PMS5003;33504;52.066;6.096;2023-09-30T01:04:48;12;11;
47741;PMS5003;33504;52.066;6.096;2023-09-30T01:07:16;12;10;
47741;PMS5003;33504;52.066;6.096;2023-09-30T01:09:43;13;12;
47741;PMS5003;33504;52.066;6.096;2023-09-30T01:12:10;50;49;
47741;PMS5003;33504;52.066;6.096;2023-09-30T01:14:37;19;16;
47741;PMS5003;33504;52.066;6.096;2023-09-30T01:17:04;56;54;
47741;PMS5003;33504;52.066;6.096;2023-09-30T01:19:31;37;34;
47741;PMS5003;33504;52.066;6.096;2023-09-30T01:21:59;32;30;
47741;PMS5003;33504;52.066;6.096;2023-09-30T01:24:26;13;11;
47741;PMS5003;33504;52.066;6.096;2023-09-30T01:26:53;11;10;
47741;PMS5003;33504;52.066;6.096;2023-09-30T01:29:20;10;10;
47741;PMS5003;33504;52.066;6.096;2023-09-30T01:31:47;13;13;
47741;PMS5003;33504;52.066;6.096;2023-09-30T01:34:14;13;12;
47741;PMS5003;33504;52.066;6.096;2023-09-30T01:36:41;13;13;
47741;PMS5003;33504;52.066;6.096;2023-09-30T01:39:08;14;12;
47741;PMS5003;33504;52.066;6.096;2023-09-30T01:41:35;12;10;
47741;PMS5003;33504;52.066;6.096;2023-09-30T01:44:02;10;10;
47741;PMS5003;33504;52.066;6.096;2023-09-30T01:46:29;14;12;
47741;PMS5003;33504;52.066;6.096;2023-09-30T01:48:56;14;10;
47741;PMS5003;33504;52.066;6.096;2023-09-30T01:51:23;15;14;
47741;PMS5003;33504;52.066;6.096;2023-09-30T01:53:50;15;13;
47741;PMS5003;33504;52.066;6.096;2023-09-30T01:56:17;12;11;
47741;PMS5003;33504;52.066;6.096;2023-09-30T01:58:44;11;10;
47741;PMS5003;33504;52.066;6.096;2023-09-30T02:01:11;14;11;
47741;PMS5003;33504;52.066;6.096;2023-09-30T02:03:38;12;12;
47741;PMS5003;33504;52.066;6.096;2023-09-30T02:06:05;16;13;
47741;PMS5003;33504;52.066;6.096;2023-09-30T02:08:32;12;11;
47741;PMS5003;33504;52.066;6.096;2023-09-30T02:10:58;13;12;
47741;PMS5003;33504;52.066;6.096;2023-09-30T02:13:26;14;12;
47741;PMS5003;33504;52.066;6.096;2023-09-30T02:15:53;15;12;
47741;PMS5003;33504;52.066;6.096;2023-09-30T02:18:20;14;12;
47741;PMS5003;33504;52.066;6.096;2023-09-30T02:20:46;11;11;
47741;PMS5003;33504;52.066;6.096;2023-09-30T02:23:13;14;13;
47741;PMS5003;33504;52.066;6.096;2023-09-30T02:25:40;13;11;
47741;PMS5003;33504;52.066;6.096;2023-09-30T02:28:07;18;16;
47741;PMS5003;33504;52.066;6.096;2023-09-30T02:30:34;15;14;
47741;PMS5003;33504;52.066;6.096;2023-09-30T02:33:01;17;15;
47741;PMS5003;33504;52.066;6.096;2023-09-30T02:35:28;14;12;
47741;PMS5003;33504;52.066;6.096;2023-09-30T02:37:56;16;13;
47741;PMS5003;33504;52.066;6.096;2023-09-30T02:40:22;17;16;
47741;PMS5003;33504;52.066;6.096;2023-09-30T02:42:50;15;14;
47741;PMS5003;33504;52.066;6.096;2023-09-30T02:45:17;16;15;
47741;PMS5003;33504;52.066;6.096;2023-09-30T02:47:44;19;17;
47741;PMS5003;33504;52.066;6.096;2023-09-30T02:50:11;17;14;
47741;PMS5003;33504;52.066;6.096;2023-09-30T02:52:39;18;16;
47741;PMS5003;33504;52.066;6.096;2023-09-30T02:55:06;15;14;
47741;PMS5003;33504;52.066;6.096;2023-09-30T02:57:34;14;13;
47741;PMS5003;33504;52.066;6.096;2023-09-30T03:00:01;44;43;
47741;PMS5003;33504;52.066;6.096;2023-09-30T03:02:28;36;36;
47741;PMS5003;33504;52.066;6.096;2023-09-30T03:04:55;39;37;
47741;PMS5003;33504;52.066;6.096;2023-09-30T03:07:22;32;31;
47741;PMS5003;33504;52.066;6.096;2023-09-30T03:09:49;44;43;
47741;PMS5003;33504;52.066;6.096;2023-09-30T03:12:16;25;23;
47741;PMS5003;33504;52.066;6.096;2023-09-30T03:14:43;28;28;
47741;PMS5003;33504;52.066;6.096;2023-09-30T03:17:10;28;26;
47741;PMS5003;33504;52.066;6.096;2023-09-30T03:19:38;40;39;
47741;PMS5003;33504;52.066;6.096;2023-09-30T03:22:05;74;73;
47741;PMS5003;33504;52.066;6.096;2023-09-30T03:24:32;26;23;
47741;PMS5003;33504;52.066;6.096;2023-09-30T03:26:59;65;62;
47741;PMS5003;33504;52.066;6.096;2023-09-30T03:29:26;40;40;
47741;PMS5003;33504;52.066;6.096;2023-09-30T03:31:54;44;41;
47741;PMS5003;33504;52.066;6.096;2023-09-30T03:34:21;77;75;
47741;PMS5003;33504;52.066;6.096;2023-09-30T03:36:48;28;26;
47741;PMS5003;33504;52.066;6.096;2023-09-30T03:39:15;37;35;
47741;PMS5003;33504;52.066;6.096;2023-09-30T03:41:42;23;23;
47741;PMS5003;33504;52.066;6.096;2023-09-30T03:44:10;52;51;
47741;PMS5003;33504;52.066;6.096;2023-09-30T03:46:37;37;33;
47741;PMS5003;33504;52.066;6.096;2023-09-30T03:49:04;104;104;
47741;PMS5003;33504;52.066;6.096;2023-09-30T03:51:31;81;80;
47741;PMS5003;33504;52.066;6.096;2023-09-30T03:53:58;35;32;
47741;PMS5003;33504;52.066;6.096;2023-09-30T03:56:25;56;56;
47741;PMS5003;33504;52.066;6.096;2023-09-30T03:58:52;28;27;
47741;PMS5003;33504;52.066;6.096;2023-09-30T04:01:19;48;48;
47741;PMS5003;33504;52.066;6.096;2023-09-30T04:03:46;36;35;
47741;PMS5003;33504;52.066;6.096;2023-09-30T04:06:14;32;31;
47741;PMS5003;33504;52.066;6.096;2023-09-30T04:08:41;39;37;
47741;PMS5003;33504;52.066;6.096;2023-09-30T04:11:08;47;46;
47741;PMS5003;33504;52.066;6.096;2023-09-30T04:13:35;35;34;
47741;PMS5003;33504;52.066;6.096;2023-09-30T04:16:02;41;38;
47741;PMS5003;33504;52.066;6.096;2023-09-30T04:18:29;37;36;
47741;PMS5003;33504;52.066;6.096;2023-09-30T04:20:56;34;30;
47741;PMS5003;33504;52.066;6.096;2023-09-30T04:23:24;38;36;
47741;PMS5003;33504;52.066;6.096;2023-09-30T04:25:51;40;40;
47741;PMS5003;33504;52.066;6.096;2023-09-30T04:28:18;34;34;
47741;PMS5003;33504;52.066;6.096;2023-09-30T04:30:45;32;31;
47741;PMS5003;33504;52.066;6.096;2023-09-30T04:33:13;55;52;
47741;PMS5003;33504;52.066;6.096;2023-09-30T04:35:39;41;38;
47741;PMS5003;33504;52.066;6.096;2023-09-30T04:38:07;34;33;
47741;PMS5003;33504;52.066;6.096;2023-09-30T04:40:34;45;43;
47741;PMS5003;33504;52.066;6.096;2023-09-30T04:43:01;40;38;
47741;PMS5003;33504;52.066;6.096;2023-09-30T04:45:28;44;42;
47741;PMS5003;33504;52.066;6.096;2023-09-30T04:47:54;85;83;
47741;PMS5003;33504;52.066;6.096;2023-09-30T04:50:22;46;45;
47741;PMS5003;33504;52.066;6.096;2023-09-30T04:52:49;60;59;
47741;PMS5003;33504;52.066;6.096;2023-09-30T04:55:17;53;52;
47741;PMS5003;33504;52.066;6.096;2023-09-30T04:57:44;43;41;
47741;PMS5003;33504;52.066;6.096;2023-09-30T05:00:12;40;36;
47741;PMS5003;33504;52.066;6.096;2023-09-30T05:02:40;43;42;
47741;PMS5003;33504;52.066;6.096;2023-09-30T05:05:08;50;50;
47741;PMS5003;33504;52.066;6.096;2023-09-30T05:07:36;38;37;
47741;PMS5003;33504;52.066;6.096;2023-09-30T05:10:03;37;35;
47741;PMS5003;33504;52.066;6.096;2023-09-30T05:12:31;33;32;
47741;PMS5003;33504;52.066;6.096;2023-09-30T05:14:58;70;68;
47741;PMS5003;33504;52.066;6.096;2023-09-30T05:17:25;58;57;
47741;PMS5003;33504;52.066;6.096;2023-09-30T05:19:52;40;39;
47741;PMS5003;33504;52.066;6.096;2023-09-30T05:22:20;59;58;
47741;PMS5003;33504;52.066;6.096;2023-09-30T05:24:46;45;44;
47741;PMS5003;33504;52.066;6.096;2023-09-30T05:27:13;42;40;
47741;PMS5003;33504;52.066;6.096;2023-09-30T05:29:40;44;39;
47741;PMS5003;33504;52.066;6.096;2023-09-30T05:32:07;44;44;
47741;PMS5003;33504;52.066;6.096;2023-09-30T05:34:34;36;35;
47741;PMS5003;33504;52.066;6.096;2023-09-30T05:37:01;39;37;
47741;PMS5003;33504;52.066;6.096;2023-09-30T05:39:29;49;48;
47741;PMS5003;33504;52.066;6.096;2023-09-30T05:41:56;38;38;
47741;PMS5003;33504;52.066;6.096;2023-09-30T05:44:23;44;42;
47741;PMS5003;33504;52.066;6.096;2023-09-30T05:46:50;54;54;
47741;PMS5003;33504;52.066;6.096;2023-09-30T05:49:17;44;41;
47741;PMS5003;33504;52.066;6.096;2023-09-30T05:51:44;56;54;
47741;PMS5003;33504;52.066;6.096;2023-09-30T05:54:11;71;71;
47741;PMS5003;33504;52.066;6.096;2023-09-30T05:56:39;51;50;
47741;PMS5003;33504;52.066;6.096;2023-09-30T05:59:07;48;45;
47741;PMS5003;33504;52.066;6.096;2023-09-30T06:01:33;45;43;
47741;PMS5003;33504;52.066;6.096;2023-09-30T06:04:00;50;50;
47741;PMS5003;33504;52.066;6.096;2023-09-30T06:06:28;61;57;
47741;PMS5003;33504;52.066;6.096;2023-09-30T06:08:55;38;37;
47741;PMS5003;33504;52.066;6.096;2023-09-30T06:11:22;58;57;
47741;PMS5003;33504;52.066;6.096;2023-09-30T06:13:49;43;42;
47741;PMS5003;33504;52.066;6.096;2023-09-30T06:16:16;53;52;
47741;PMS5003;33504;52.066;6.096;2023-09-30T06:18:43;46;45;
47741;PMS5003;33504;52.066;6.096;2023-09-30T06:21:10;60;60;
47741;PMS5003;33504;52.066;6.096;2023-09-30T06:23:37;41;38;
47741;PMS5003;33504;52.066;6.096;2023-09-30T06:26:05;44;40;
47741;PMS5003;33504;52.066;6.096;2023-09-30T06:28:32;35;33;
47741;PMS5003;33504;52.066;6.096;2023-09-30T06:30:59;36;34;
47741;PMS5003;33504;52.066;6.096;2023-09-30T06:33:26;43;42;
47741;PMS5003;33504;52.066;6.096;2023-09-30T06:35:53;44;43;
47741;PMS5003;33504;52.066;6.096;2023-09-30T06:38:21;62;59;
47741;PMS5003;33504;52.066;6.096;2023-09-30T06:40:48;33;32;
47741;PMS5003;33504;52.066;6.096;2023-09-30T06:43:16;47;44;
47741;PMS5003;33504;52.066;6.096;2023-09-30T06:45:48;49;48;
47741;PMS5003;33504;52.066;6.096;2023-09-30T06:48:15;49;45;
47741;PMS5003;33504;52.066;6.096;2023-09-30T06:50:43;33;32;
47741;PMS5003;33504;52.066;6.096;2023-09-30T06:53:11;45;45;
47741;PMS5003;33504;52.066;6.096;2023-09-30T06:55:39;58;54;
47741;PMS5003;33504;52.066;6.096;2023-09-30T06:58:07;53;52;
47741;PMS5003;33504;52.066;6.096;2023-09-30T07:00:35;41;39;
47741;PMS5003;33504;52.066;6.096;2023-09-30T07:03:03;50;48;
47741;PMS5003;33504;52.066;6.096;2023-09-30T07:05:31;43;40;
47741;PMS5003;33504;52.066;6.096;2023-09-30T07:07:58;35;35;
47741;PMS5003;33504;52.066;6.096;2023-09-30T07:10:25;42;41;
47741;PMS5003;33504;52.066;6.096;2023-09-30T07:12:52;49;49;
47741;PMS5003;33504;52.066;6.096;2023-09-30T07:15:19;39;38;
47741;PMS5003;33504;52.066;6.096;2023-09-30T07:17:47;36;34;
47741;PMS5003;33504;52.066;6.096;2023-09-30T07:20:14;35;31;
47741;PMS5003;33504;52.066;6.096;2023-09-30T07:22:41;33;31;
47741;PMS5003;33504;52.066;6.096;2023-09-30T07:25:09;43;41;
47741;PMS5003;33504;52.066;6.096;2023-09-30T07:27:36;41;41;
47741;PMS5003;33504;52.066;6.096;2023-09-30T07:30:04;49;45;
47741;PMS5003;33504;52.066;6.096;2023-09-30T07:32:32;33;32;
47741;PMS5003;33504;52.066;6.096;2023-09-30T07:34:59;38;34;
47741;PMS5003;33504;52.066;6.096;2023-09-30T07:37:26;46;42;
47741;PMS5003;33504;52.066;6.096;2023-09-30T07:39:53;36;36;
47741;PMS5003;33504;52.066;6.096;2023-09-30T07:42:20;37;37;
47741;PMS5003;33504;52.066;6.096;2023-09-30T07:44:47;36;35;
47741;PMS5003;33504;52.066;6.096;2023-09-30T07:47:14;31;29;
47741;PMS5003;33504;52.066;6.096;2023-09-30T07:49:41;34;30;
47741;PMS5003;33504;52.066;6.096;2023-09-30T07:52:07;33;32;
47741;PMS5003;33504;52.066;6.096;2023-09-30T07:54:34;45;41;
47741;PMS5003;33504;52.066;6.096;2023-09-30T07:57:01;36;36;
47741;PMS5003;33504;52.066;6.096;2023-09-30T07:59:29;24;23;
47741;PMS5003;33504;52.066;6.096;2023-09-30T08:01:55;26;26;
47741;PMS5003;33504;52.066;6.096;2023-09-30T08:04:22;27;26;
47741;PMS5003;33504;52.066;6.096;2023-09-30T08:06:49;26;24;
47741;PMS5003;33504;52.066;6.096;2023-09-30T08:09:16;28;25;
47741;PMS5003;33504;52.066;6.096;2023-09-30T08:11:43;40;39;
47741;PMS5003;33504;52.066;6.096;2023-09-30T08:14:10;24;23;
47741;PMS5003;33504;52.066;6.096;2023-09-30T08:16:38;26;24;
47741;PMS5003;33504;52.066;6.096;2023-09-30T08:19:05;26;26;
47741;PMS5003;33504;52.066;6.096;2023-09-30T08:21:32;28;27;
47741;PMS5003;33504;52.066;6.096;2023-09-30T08:23:59;22;20;
47741;PMS5003;33504;52.066;6.096;2023-09-30T08:26:26;21;21;
47741;PMS5003;33504;52.066;6.096;2023-09-30T08:28:53;22;20;
47741;PMS5003;33504;52.066;6.096;2023-09-30T08:31:21;26;25;
47741;PMS5003;33504;52.066;6.096;2023-09-30T08:33:48;22;22;
47741;PMS5003;33504;52.066;6.096;2023-09-30T08:36:15;23;20;
47741;PMS5003;33504;52.066;6.096;2023-09-30T08:38:42;24;23;
47741;PMS5003;33504;52.066;6.096;2023-09-30T08:41:08;28;26;
47741;PMS5003;33504;52.066;6.096;2023-09-30T08:43:36;23;23;
47741;PMS5003;33504;52.066;6.096;2023-09-30T08:46:05;29;25;
47741;PMS5003;33504;52.066;6.096;2023-09-30T08:48:32;21;20;
47741;PMS5003;33504;52.066;6.096;2023-09-30T08:51:01;21;19;
47741;PMS5003;33504;52.066;6.096;2023-09-30T08:53:29;22;21;
47741;PMS5003;33504;52.066;6.096;2023-09-30T08:55:56;20;19;
47741;PMS5003;33504;52.066;6.096;2023-09-30T08:58:26;22;20;
47741;PMS5003;33504;52.066;6.096;2023-09-30T09:00:54;18;16;
47741;PMS5003;33504;52.066;6.096;2023-09-30T09:03:22;20;20;
47741;PMS5003;33504;52.066;6.096;2023-09-30T09:05:53;20;19;
47741;PMS5003;33504;52.066;6.096;2023-09-30T09:08:20;19;16;
47741;PMS5003;33504;52.066;6.096;2023-09-30T09:10:53;15;14;
47741;PMS5003;33504;52.066;6.096;2023-09-30T09:13:21;16;16;
47741;PMS5003;33504;52.066;6.096;2023-09-30T09:15:48;22;21;
47741;PMS5003;33504;52.066;6.096;2023-09-30T09:18:30;20;16;
47741;PMS5003;33504;52.066;6.096;2023-09-30T09:21:07;16;14;
47741;PMS5003;33504;52.066;6.096;2023-09-30T09:23:38;17;16;
47741;PMS5003;33504;52.066;6.096;2023-09-30T09:26:06;21;19;
47741;PMS5003;33504;52.066;6.096;2023-09-30T09:28:34;84;83;
47741;PMS5003;33504;52.066;6.096;2023-09-30T09:31:02;42;41;
47741;PMS5003;33504;52.066;6.096;2023-09-30T09:33:35;20;18;
47741;PMS5003;33504;52.066;6.096;2023-09-30T09:36:02;15;14;
47741;PMS5003;33504;52.066;6.096;2023-09-30T09:38:38;11;11;
47741;PMS5003;33504;52.066;6.096;2023-09-30T09:41:10;13;10;
47741;PMS5003;33504;52.066;6.096;2023-09-30T09:43:37;9;8;
47741;PMS5003;33504;52.066;6.096;2023-09-30T09:46:07;8;8;
47741;PMS5003;33504;52.066;6.096;2023-09-30T09:48:35;9;8;
47741;PMS5003;33504;52.066;6.096;2023-09-30T09:51:03;10;8;
47741;PMS5003;33504;52.066;6.096;2023-09-30T09:53:31;9;8;
47741;PMS5003;33504;52.066;6.096;2023-09-30T09:56:02;9;8;
47741;PMS5003;33504;52.066;6.096;2023-09-30T09:58:32;8;8;
47741;PMS5003;33504;52.066;6.096;2023-09-30T10:00:59;8;7;
47741;PMS5003;33504;52.066;6.096;2023-09-30T10:03:27;7;6;
47741;PMS5003;33504;52.066;6.096;2023-09-30T10:05:54;6;6;
47741;PMS5003;33504;52.066;6.096;2023-09-30T10:08:35;8;6;
47741;PMS5003;33504;52.066;6.096;2023-09-30T10:11:14;8;6;
47741;PMS5003;33504;52.066;6.096;2023-09-30T10:14:04;7;6;
47741;PMS5003;33504;52.066;6.096;2023-09-30T10:16:56;3;3;
47741;PMS5003;33504;52.066;6.096;2023-09-30T10:19:24;8;6;
47741;PMS5003;33504;52.066;6.096;2023-09-30T10:22:35;5;5;
47741;PMS5003;33504;52.066;6.096;2023-09-30T10:25:32;7;7;
47741;PMS5003;33504;52.066;6.096;2023-09-30T10:28:32;7;7;
47741;PMS5003;33504;52.066;6.096;2023-09-30T10:31:22;5;5;
47741;PMS5003;33504;52.066;6.096;2023-09-30T10:34:26;4;4;
47741;PMS5003;33504;52.066;6.096;2023-09-30T10:36:59;5;5;
47741;PMS5003;33504;52.066;6.096;2023-09-30T10:39:56;4;4;
47741;PMS5003;33504;52.066;6.096;2023-09-30T10:42:57;4;4;
47741;PMS5003;33504;52.066;6.096;2023-09-30T10:45:44;7;7;
47741;PMS5003;33504;52.066;6.096;2023-09-30T10:48:56;8;7;
47741;PMS5003;33504;52.066;6.096;2023-09-30T10:51:46;5;5;
47741;PMS5003;33504;52.066;6.096;2023-09-30T10:54:14;8;7;
47741;PMS5003;33504;52.066;6.096;2023-09-30T10:56:41;5;4;
47741;PMS5003;33504;52.066;6.096;2023-09-30T10:59:09;6;6;
47741;PMS5003;33504;52.066;6.096;2023-09-30T11:01:36;5;5;
47741;PMS5003;33504;52.066;6.096;2023-09-30T11:04:04;8;7;
47741;PMS5003;33504;52.066;6.096;2023-09-30T11:06:33;5;4;
47741;PMS5003;33504;52.066;6.096;2023-09-30T11:09:01;5;4;
47741;PMS5003;33504;52.066;6.096;2023-09-30T11:11:33;4;4;
47741;PMS5003;33504;52.066;6.096;2023-09-30T11:14:01;4;4;
47741;PMS5003;33504;52.066;6.096;2023-09-30T11:16:28;7;7;
47741;PMS5003;33504;52.066;6.096;2023-09-30T11:18:55;8;6;
47741;PMS5003;33504;52.066;6.096;2023-09-30T11:21:22;7;5;
47741;PMS5003;33504;52.066;6.096;2023-09-30T11:23:50;6;4;
47741;PMS5003;33504;52.066;6.096;2023-09-30T11:26:22;6;5;
47741;PMS5003;33504;52.066;6.096;2023-09-30T11:28:55;8;7;
47741;PMS5003;33504;52.066;6.096;2023-09-30T11:31:31;7;6;
47741;PMS5003;33504;52.066;6.096;2023-09-30T11:33:58;7;7;
47741;PMS5003;33504;52.066;6.096;2023-09-30T11:36:25;7;7;
47741;PMS5003;33504;52.066;6.096;2023-09-30T11:38:53;9;7;
47741;PMS5003;33504;52.066;6.096;2023-09-30T11:41:20;23;23;
47741;PMS5003;33504;52.066;6.096;2023-09-30T11:44:04;7;7;
47741;PMS5003;33504;52.066;6.096;2023-09-30T11:46:33;7;6;
47741;PMS5003;33504;52.066;6.096;2023-09-30T11:49:13;11;10;
47741;PMS5003;33504;52.066;6.096;2023-09-30T11:51:52;9;7;
47741;PMS5003;33504;52.066;6.096;2023-09-30T11:54:22;9;8;
47741;PMS5003;33504;52.066;6.096;2023-09-30T11:56:54;4;3;
47741;PMS5003;33504;52.066;6.096;2023-09-30T11:59:22;8;7;
47741;PMS5003;33504;52.066;6.096;2023-09-30T12:01:49;7;7;
47741;PMS5003;33504;52.066;6.096;2023-09-30T12:04:16;7;6;
47741;PMS5003;33504;52.066;6.096;2023-09-30T12:06:44;6;4;
47741;PMS5003;33504;52.066;6.096;2023-09-30T12:09:11;5;5;
47741;PMS5003;33504;52.066;6.096;2023-09-30T12:11:39;11;11;
47741;PMS5003;33504;52.066;6.096;2023-09-30T12:14:06;8;8;
47741;PMS5003;33504;52.066;6.096;2023-09-30T12:16:33;7;7;
47741;PMS5003;33504;52.066;6.096;2023-09-30T12:19:01;9;8;
47741;PMS5003;33504;52.066;6.096;2023-09-30T12:21:28;10;8;
47741;PMS5003;33504;52.066;6.096;2023-09-30T12:23:55;6;6;
47741;PMS5003;33504;52.066;6.096;2023-09-30T12:26:23;7;7;
47741;PMS5003;33504;52.066;6.096;2023-09-30T12:28:50;6;6;
47741;PMS5003;33504;52.066;6.096;2023-09-30T12:31:18;10;7;
47741;PMS5003;33504;52.066;6.096;2023-09-30T12:33:45;9;8;
47741;PMS5003;33504;52.066;6.096;2023-09-30T12:36:12;7;6;
47741;PMS5003;33504;52.066;6.096;2023-09-30T12:38:40;8;8;
47741;PMS5003;33504;52.066;6.096;2023-09-30T12:41:07;8;8;
47741;PMS5003;33504;52.066;6.096;2023-09-30T12:43:35;4;4;
47741;PMS5003;33504;52.066;6.096;2023-09-30T12:46:02;6;6;
47741;PMS5003;33504;52.066;6.096;2023-09-30T12:48:29;7;5;
47741;PMS5003;33504;52.066;6.096;2023-09-30T12:50:57;4;3;
47741;PMS5003;33504;52.066;6.096;2023-09-30T12:53:24;8;6;
47741;PMS5003;33504;52.066;6.096;2023-09-30T12:55:51;6;4;
47741;PMS5003;33504;52.066;6.096;2023-09-30T12:58:19;6;6;
47741;PMS5003;33504;52.066;6.096;2023-09-30T13:00:46;6;6;
47741;PMS5003;33504;52.066;6.096;2023-09-30T13:03:13;8;8;
47741;PMS5003;33504;52.066;6.096;2023-09-30T13:05:41;6;6;
47741;PMS5003;33504;52.066;6.096;2023-09-30T13:08:08;6;6;
47741;PMS5003;33504;52.066;6.096;2023-09-30T13:10:35;9;8;
47741;PMS5003;33504;52.066;6.096;2023-09-30T13:13:02;9;7;
47741;PMS5003;33504;52.066;6.096;2023-09-30T13:15:29;15;14;
47741;PMS5003;33504;52.066;6.096;2023-09-30T13:17:56;9;7;
47741;PMS5003;33504;52.066;6.096;2023-09-30T13:20:22;17;17;
47741;PMS5003;33504;52.066;6.096;2023-09-30T13:22:49;10;10;
47741;PMS5003;33504;52.066;6.096;2023-09-30T13:25:16;6;5;
47741;PMS5003;33504;52.066;6.096;2023-09-30T13:27:43;6;5;
47741;PMS5003;33504;52.066;6.096;2023-09-30T13:30:11;6;5;
47741;PMS5003;33504;52.066;6.096;2023-09-30T13:32:38;5;5;
47741;PMS5003;33504;52.066;6.096;2023-09-30T13:35:06;6;5;
47741;PMS5003;33504;52.066;6.096;2023-09-30T13:37:33;7;6;
47741;PMS5003;33504;52.066;6.096;2023-09-30T13:40:01;5;5;
47741;PMS5003;33504;52.066;6.096;2023-09-30T13:42:29;5;5;
47741;PMS5003;33504;52.066;6.096;2023-09-30T13:44:56;7;6;
47741;PMS5003;33504;52.066;6.096;2023-09-30T13:47:24;5;5;
47741;PMS5003;33504;52.066;6.096;2023-09-30T13:49:51;8;7;
47741;PMS5003;33504;52.066;6.096;2023-09-30T13:52:18;6;6;
47741;PMS5003;33504;52.066;6.096;2023-09-30T13:54:46;5;5;
47741;PMS5003;33504;52.066;6.096;2023-09-30T13:57:13;7;7;
47741;PMS5003;33504;52.066;6.096;2023-09-30T13:59:41;10;9;
47741;PMS5003;33504;52.066;6.096;2023-09-30T14:02:08;5;5;
47741;PMS5003;33504;52.066;6.096;2023-09-30T14:04:36;5;5;
47741;PMS5003;33504;52.066;6.096;2023-09-30T14:07:06;8;7;
47741;PMS5003;33504;52.066;6.096;2023-09-30T14:09:35;7;7;
47741;PMS5003;33504;52.066;6.096;2023-09-30T14:12:03;6;5;
47741;PMS5003;33504;52.066;6.096;2023-09-30T14:14:31;11;10;
47741;PMS5003;33504;52.066;6.096;2023-09-30T14:16:59;6;6;
47741;PMS5003;33504;52.066;6.096;2023-09-30T14:19:26;6;5;
47741;PMS5003;33504;52.066;6.096;2023-09-30T14:21:53;6;6;
47741;PMS5003;33504;52.066;6.096;2023-09-30T14:24:21;7;7;
47741;PMS5003;33504;52.066;6.096;2023-09-30T14:26:48;9;8;
47741;PMS5003;33504;52.066;6.096;2023-09-30T14:29:16;11;11;
47741;PMS5003;33504;52.066;6.096;2023-09-30T14:31:44;12;12;
47741;PMS5003;33504;52.066;6.096;2023-09-30T14:34:13;13;12;
47741;PMS5003;33504;52.066;6.096;2023-09-30T14:36:40;16;15;
47741;PMS5003;33504;52.066;6.096;2023-09-30T14:39:07;52;51;
47741;PMS5003;33504;52.066;6.096;2023-09-30T14:41:34;6;5;
47741;PMS5003;33504;52.066;6.096;2023-09-30T14:44:02;9;7;
47741;PMS5003;33504;52.066;6.096;2023-09-30T14:46:29;7;6;
47741;PMS5003;33504;52.066;6.096;2023-09-30T14:48:56;6;5;
47741;PMS5003;33504;52.066;6.096;2023-09-30T14:51:23;29;29;
47741;PMS5003;33504;52.066;6.096;2023-09-30T14:53:50;34;34;
47741;PMS5003;33504;52.066;6.096;2023-09-30T14:56:17;35;34;
47741;PMS5003;33504;52.066;6.096;2023-09-30T14:58:45;31;30;
47741;PMS5003;33504;52.066;6.096;2023-09-30T15:01:12;6;5;
47741;PMS5003;33504;52.066;6.096;2023-09-30T15:03:40;9;9;
47741;PMS5003;33504;52.066;6.096;2023-09-30T15:06:07;11;11;
47741;PMS5003;33504;52.066;6.096;2023-09-30T15:08:34;15;15;
47741;PMS5003;33504;52.066;6.096;2023-09-30T15:11:01;15;14;
47741;PMS5003;33504;52.066;6.096;2023-09-30T15:13:29;31;29;
47741;PMS5003;33504;52.066;6.096;2023-09-30T15:15:56;11;8;
47741;PMS5003;33504;52.066;6.096;2023-09-30T15:18:23;18;16;
47741;PMS5003;33504;52.066;6.096;2023-09-30T15:20:50;7;6;
47741;PMS5003;33504;52.066;6.096;2023-09-30T15:23:18;9;9;
47741;PMS5003;33504;52.066;6.096;2023-09-30T15:25:45;11;9;
47741;PMS5003;33504;52.066;6.096;2023-09-30T15:28:12;13;11;
47741;PMS5003;33504;52.066;6.096;2023-09-30T15:30:39;7;7;
47741;PMS5003;33504;52.066;6.096;2023-09-30T15:33:07;9;8;
47741;PMS5003;33504;52.066;6.096;2023-09-30T15:35:34;8;8;
47741;PMS5003;33504;52.066;6.096;2023-09-30T15:38:02;8;7;
47741;PMS5003;33504;52.066;6.096;2023-09-30T15:40:29;15;14;
47741;PMS5003;33504;52.066;6.096;2023-09-30T15:42:56;8;8;
47741;PMS5003;33504;52.066;6.096;2023-09-30T15:45:23;7;6;
47741;PMS5003;33504;52.066;6.096;2023-09-30T15:47:51;7;7;
47741;PMS5003;33504;52.066;6.096;2023-09-30T15:50:18;8;7;
47741;PMS5003;33504;52.066;6.096;2023-09-30T15:52:46;7;6;
47741;PMS5003;33504;52.066;6.096;2023-09-30T15:55:13;10;9;
47741;PMS5003;33504;52.066;6.096;2023-09-30T15:57:40;11;7;
47741;PMS5003;33504;52.066;6.096;2023-09-30T16:00:07;7;7;
47741;PMS5003;33504;52.066;6.096;2023-09-30T16:02:35;15;13;
47741;PMS5003;33504;52.066;6.096;2023-09-30T16:05:02;10;10;
47741;PMS5003;33504;52.066;6.096;2023-09-30T16:07:29;10;10;
47741;PMS5003;33504;52.066;6.096;2023-09-30T16:09:57;11;11;
47741;PMS5003;33504;52.066;6.096;2023-09-30T16:12:24;14;14;
47741;PMS5003;33504;52.066;6.096;2023-09-30T16:14:50;10;9;
47741;PMS5003;33504;52.066;6.096;2023-09-30T16:17:18;9;8;
47741;PMS5003;33504;52.066;6.096;2023-09-30T16:19:45;8;8;
47741;PMS5003;33504;52.066;6.096;2023-09-30T16:22:13;9;9;
47741;PMS5003;33504;52.066;6.096;2023-09-30T16:24:40;8;8;
47741;PMS5003;33504;52.066;6.096;2023-09-30T16:27:07;8;8;
47741;PMS5003;33504;52.066;6.096;2023-09-30T16:29:35;7;7;
47741;PMS5003;33504;52.066;6.096;2023-09-30T16:32:02;13;12;
47741;PMS5003;33504;52.066;6.096;2023-09-30T16:34:30;8;8;
47741;PMS5003;33504;52.066;6.096;2023-09-30T16:36:57;10;10;